Nordic Pia — 9V2534 — position and weather

sailwx.info

Track history (hours):
 
Tides and Currents Weather Stations Pressure Air Temp Water Temp Dewpoint Dewpoint Depression Visibility Wind Speed Wind Dir Waves Ship Positions

Nordic Pia

Last reported at 2017-Dec-14 18:30 UTC. Time now 2017-Dec-18 05:28 UTC.
Position N 53°43' E 008°18'.

Length 183 m; draft 7.4 m.

Type: Ship. MMSI: 564517000.

Date/timePositionNaut miles runAvg speedWind from/ knotsBaromVisibWave heightAir tempDewpointWater temp
2017-Dec-14 18:30N 53°43' E 008°18'611.8
2017-Dec-14 18:00N 53°39' E 008°26'611.6
2017-Dec-14 17:30N 53°34' E 008°32'4 7.8
2017-Dec-14 17:00N 53°30' E 008°31'612.6
2017-Dec-14 16:31N 53°24' E 008°30'611.9
2017-Dec-14 16:00N 53°18' E 008°30'10 9.8
2017-Dec-14 15:00N 53°10' E 008°38'4 7.9
2017-Dec-14 14:31N 53°07' E 008°43'0 0.3
2017-Dec-14 14:00N 53°07' E 008°43'0 0.4
2017-Dec-14 13:30N 53°07' E 008°43'1 1.0
2017-Dec-14 12:59N 53°08' E 008°43'0 0.0
2017-Dec-14 12:29N 53°08' E 008°43'0 0.0
2017-Dec-14 11:59N 53°08' E 008°43'0 0.0
2017-Dec-14 11:29N 53°08' E 008°43'0 0.0
2017-Dec-14 10:59N 53°08' E 008°43'0 0.0
2017-Dec-14 10:29N 53°08' E 008°43'0 0.0
2017-Dec-14 09:59N 53°08' E 008°43'0 0.0
2017-Dec-14 09:29N 53°08' E 008°43'0 0.0
2017-Dec-14 08:59N 53°08' E 008°43'0 0.0
2017-Dec-14 08:29N 53°08' E 008°43'0 0.0
2017-Dec-14 07:59N 53°08' E 008°43'0 0.0
2017-Dec-14 07:29N 53°08' E 008°43'0 0.0
2017-Dec-14 06:59N 53°08' E 008°43'0 0.0
2017-Dec-14 06:29N 53°08' E 008°43'0 0.0
2017-Dec-14 05:59N 53°08' E 008°43'0 0.0
2017-Dec-14 05:29N 53°08' E 008°43'0 0.0
2017-Dec-14 04:59N 53°08' E 008°43'0 0.0
2017-Dec-14 04:29N 53°08' E 008°43'0 0.0
2017-Dec-14 03:59N 53°08' E 008°43'0 0.0
2017-Dec-14 03:29N 53°08' E 008°43'0 0.0
2017-Dec-14 02:59N 53°08' E 008°43'0 0.0
2017-Dec-14 02:29N 53°08' E 008°43'0 0.0
2017-Dec-14 01:59N 53°08' E 008°43'0 0.0
2017-Dec-14 01:29N 53°08' E 008°43'0 0.0
2017-Dec-14 00:59N 53°08' E 008°43'0 0.0
2017-Dec-14 00:29N 53°08' E 008°43'0 0.0
2017-Dec-13 23:59N 53°08' E 008°43'0 0.0
2017-Dec-13 23:29N 53°08' E 008°43'0 0.0
2017-Dec-13 22:59N 53°08' E 008°43'0 0.0
2017-Dec-13 22:29N 53°08' E 008°43'0 0.0
2017-Dec-13 21:59N 53°08' E 008°43'0 0.0
2017-Dec-13 21:29N 53°08' E 008°43'0 0.0
2017-Dec-13 20:59N 53°08' E 008°43'0 0.0
2017-Dec-13 20:29N 53°08' E 008°43'0 0.0
2017-Dec-13 19:59N 53°08' E 008°43'0 0.0
2017-Dec-13 19:29N 53°08' E 008°43'0 0.0
2017-Dec-13 18:59N 53°08' E 008°43'0 0.0
2017-Dec-13 18:29N 53°08' E 008°43'0 0.0
2017-Dec-13 17:59N 53°08' E 008°43'0 0.0
2017-Dec-13 17:29N 53°08' E 008°43'0 0.0
2017-Dec-13 16:59N 53°08' E 008°43'0 0.0
2017-Dec-13 16:29N 53°08' E 008°43'0 0.0
2017-Dec-13 15:59N 53°08' E 008°43'0 0.0
2017-Dec-13 15:29N 53°08' E 008°43'0 0.0
2017-Dec-13 14:59N 53°08' E 008°43'0 0.0
2017-Dec-13 14:29N 53°08' E 008°43'0 0.0
2017-Dec-13 13:59N 53°08' E 008°43'0 0.0
2017-Dec-13 13:30N 53°08' E 008°43'0 0.0
2017-Dec-13 12:59N 53°08' E 008°43'0 0.0
2017-Dec-13 12:29N 53°08' E 008°43'0 0.0
2017-Dec-13 11:59N 53°08' E 008°43'0 0.0
2017-Dec-13 11:29N 53°08' E 008°43'0 0.0
2017-Dec-13 10:59N 53°08' E 008°43'0 0.0
2017-Dec-13 10:29N 53°08' E 008°43'0 0.0
2017-Dec-13 09:59N 53°08' E 008°43'0 0.0
2017-Dec-13 09:29N 53°08' E 008°43'0 0.0
2017-Dec-13 08:59N 53°08' E 008°43'0 0.0
2017-Dec-13 08:29N 53°08' E 008°43'0 0.0
2017-Dec-13 07:59N 53°08' E 008°43'0 0.0
2017-Dec-13 07:29N 53°08' E 008°43'0 0.0
2017-Dec-13 06:59N 53°08' E 008°43'0 0.0
2017-Dec-13 06:29N 53°08' E 008°43'0 0.0
2017-Dec-13 05:59N 53°08' E 008°43'0 0.0
2017-Dec-13 05:29N 53°08' E 008°43'0 0.0
2017-Dec-13 04:59N 53°08' E 008°43'0 0.0
2017-Dec-13 04:29N 53°08' E 008°43'0 0.0
2017-Dec-13 03:59N 53°08' E 008°43'0 0.0
2017-Dec-13 03:29N 53°08' E 008°43'0 0.0
2017-Dec-13 02:59N 53°08' E 008°43'0 0.0
2017-Dec-13 02:29N 53°08' E 008°43'0 0.0
2017-Dec-13 01:59N 53°08' E 008°43'0 0.0
2017-Dec-13 01:29N 53°08' E 008°43'0 0.0
2017-Dec-13 00:59N 53°08' E 008°43'0 0.0
2017-Dec-13 00:29N 53°08' E 008°43'0 0.0
2017-Dec-12 23:59N 53°08' E 008°43'0 0.0
2017-Dec-12 23:26N 53°08' E 008°43'0 0.0
2017-Dec-12 22:59N 53°08' E 008°43'0 0.0
2017-Dec-12 22:29N 53°08' E 008°43'0 0.0
2017-Dec-12 21:59N 53°08' E 008°43'0 0.0
2017-Dec-12 21:29N 53°08' E 008°43'0 0.0
2017-Dec-12 20:59N 53°08' E 008°43'0 0.0
2017-Dec-12 20:29N 53°08' E 008°43'0 0.0
2017-Dec-12 19:59N 53°08' E 008°43'0 0.0
2017-Dec-12 19:29N 53°08' E 008°43'0 0.0
2017-Dec-12 18:59N 53°08' E 008°43'0 0.0
2017-Dec-12 18:29N 53°08' E 008°43'0 0.0
2017-Dec-12 17:59N 53°08' E 008°43'0 0.0
2017-Dec-12 17:29N 53°08' E 008°43'0 0.0
2017-Dec-12 16:59N 53°08' E 008°43'0 0.0
2017-Dec-12 16:29N 53°08' E 008°43'0 0.0
2017-Dec-12 15:59N 53°08' E 008°43'0 0.0
2017-Dec-12 15:29N 53°08' E 008°43'0 0.0
2017-Dec-12 14:59N 53°08' E 008°43'0 0.0
2017-Dec-12 14:29N 53°08' E 008°43'0 0.0
2017-Dec-12 13:59N 53°08' E 008°43'0 0.0
2017-Dec-12 13:29N 53°08' E 008°43'0 0.0
2017-Dec-12 12:59N 53°08' E 008°43'0 0.0
2017-Dec-12 12:29N 53°08' E 008°43'0 0.0
2017-Dec-12 11:59N 53°08' E 008°43'0 0.0
2017-Dec-12 11:29N 53°08' E 008°43'0 0.0
2017-Dec-12 10:59N 53°08' E 008°43'0 0.0
2017-Dec-12 10:29N 53°08' E 008°43'0 0.0
2017-Dec-12 09:59N 53°08' E 008°43'0 0.6
2017-Dec-12 09:30N 53°08' E 008°43'0 0.7
2017-Dec-12 09:00N 53°07' E 008°43'0 0.2
2017-Dec-12 08:31N 53°07' E 008°43'0 0.2
2017-Dec-12 08:00N 53°07' E 008°43'0 0.9
2017-Dec-12 07:31N 53°07' E 008°42'2 4.5
2017-Dec-12 07:00N 53°08' E 008°38'4 7.6
2017-Dec-12 06:30N 53°11' E 008°34'5 9.9
2017-Dec-12 06:00N 53°15' E 008°29'611.5
2017-Dec-12 05:31N 53°20' E 008°30'612.7
2017-Dec-12 05:00N 53°27' E 008°29'611.2
2017-Dec-12 04:30N 53°32' E 008°34'4 8.2
2017-Dec-12 04:00N 53°35' E 008°31'612.2
2017-Dec-12 03:30N 53°40' E 008°23'713.1
2017-Dec-12 03:00N 53°44' E 008°15'713.9
2017-Dec-12 02:30N 53°49' E 008°07'612.6
2017-Dec-12 02:01N 53°51' E 007°57'247 5.9
2017-Dec-10 08:03N 57°48' E 010°04'112.1
2017-Dec-10 07:59N 57°48' E 010°05'611.7
2017-Dec-10 07:30N 57°49' E 010°16'611.2
2017-Dec-10 07:00N 57°48' E 010°26'511.0
2017-Dec-10 06:30N 57°48' E 010°36'510.4
2017-Dec-10 06:00N 57°48' E 010°46'611.1
2017-Dec-10 05:30N 57°44' E 010°53'5 9.8
2017-Dec-10 05:00N 57°41' E 011°00'611.8
2017-Dec-10 04:30N 57°37' E 011°08'611.8
2017-Dec-10 04:00N 57°33' E 011°17'611.5
2017-Dec-10 03:30N 57°29' E 011°25'611.5
2017-Dec-10 03:00N 57°24' E 011°29'611.8
2017-Dec-10 02:30N 57°18' E 011°32'611.8
2017-Dec-10 02:00N 57°12' E 011°36'612.0
2017-Dec-10 01:30N 57°07' E 011°40'10810.8
2017-Dec-09 15:33N 55°21' E 011°02'110.5
2017-Dec-09 15:30N 55°21' E 011°02'510.4
2017-Dec-09 15:00N 55°16' E 011°05'5 9.5
2017-Dec-09 14:29N 55°11' E 011°04'510.7
2017-Dec-09 14:00N 55°06' E 010°59'510.9
2017-Dec-09 13:30N 55°01' E 010°59'510.5
2017-Dec-09 13:00N 54°57' E 010°54'4 8.6
2017-Dec-09 12:30N 54°53' E 010°51'4 7.9
2017-Dec-09 12:00N 54°49' E 010°50'510.6
2017-Dec-09 11:30N 54°44' E 010°47'5 9.5
2017-Dec-09 11:00N 54°40' E 010°51'510.7
2017-Dec-09 10:30N 54°37' E 010°58'510.4
2017-Dec-09 10:00N 54°36' E 011°07'510.0
2017-Dec-09 09:30N 54°34' E 011°15'510.5
2017-Dec-09 09:00N 54°32' E 011°24'510.6
2017-Dec-09 08:30N 54°30' E 011°32'510.6
2017-Dec-09 08:00N 54°28' E 011°40'810.7
2017-Dec-09 07:17N 54°27' E 011°54'310.5
2017-Dec-09 07:00N 54°27' E 011°58'69 9.5
2017-Dec-08 23:46N 55°00' E 013°43'410.4
2017-Dec-08 23:24N 55°01' E 013°50'510.3
2017-Dec-08 22:55N 55°03' E 013°57'510.3
2017-Dec-08 22:28N 55°05' E 014°05'710.3
2017-Dec-08 21:50N 55°10' E 014°12'510.7
2017-Dec-08 21:22N 55°14' E 014°18'510.8
2017-Dec-08 20:56N 55°18' E 014°23'611.1
2017-Dec-08 20:25N 55°23' E 014°29'611.0
2017-Dec-08 19:54N 55°27' E 014°35'511.1
2017-Dec-08 19:28N 55°29' E 014°43'1111.1
2017-Dec-08 18:26N 55°34' E 015°00'511.1
2017-Dec-08 17:59N 55°37' E 015°08'511.0
2017-Dec-08 17:30N 55°39' E 015°17'511.0
2017-Dec-08 17:00N 55°42' E 015°25'611.0
2017-Dec-08 16:30N 55°44' E 015°34'611.1
2017-Dec-08 16:00N 55°47' E 015°43'611.1
2017-Dec-08 15:30N 55°49' E 015°51'611.1
2017-Dec-08 15:00N 55°53' E 015°60'611.1
2017-Dec-08 14:30N 55°56' E 016°08'510.9
2017-Dec-08 14:00N 55°59' E 016°16'510.6
2017-Dec-08 13:30N 56°01' E 016°24'510.7
2017-Dec-08 13:00N 56°04' E 016°32'29510.6
2017-Dec-07 09:05N 59°36' E 022°59'112.1
2017-Dec-07 09:00N 59°36' E 023°01'612.3
2017-Dec-07 08:30N 59°38' E 023°13'612.3
2017-Dec-07 08:00N 59°39' E 023°25'612.4
2017-Dec-07 07:30N 59°41' E 023°36'612.9
2017-Dec-07 07:00N 59°43' E 023°49'713.8
2017-Dec-07 06:30N 59°44' E 024°02'812.9
2017-Dec-07 05:51N 59°47' E 024°18'412.4
2017-Dec-07 05:30N 59°48' E 024°26'612.4
2017-Dec-07 05:00N 59°49' E 024°39'612.6
2017-Dec-07 04:31N 59°50' E 024°51'612.6
2017-Dec-07 04:00N 59°52' E 025°03'612.4
2017-Dec-07 03:30N 59°53' E 025°15'2912.7
2017-Dec-07 01:11N 59°59' E 026°13'212.3
2017-Dec-07 00:59N 59°59' E 026°17'612.4
2017-Dec-07 00:31N 60°01' E 026°29'611.7
2017-Dec-07 00:01N 60°01' E 026°41'612.6
2017-Dec-06 23:30N 59°60' E 026°53'611.9
2017-Dec-06 23:00N 59°60' E 027°05'612.5
2017-Dec-06 22:30N 60°03' E 027°16'612.4
2017-Dec-06 22:00N 60°06' E 027°27'612.5
2017-Dec-06 21:30N 60°10' E 027°37'713.2
2017-Dec-06 21:01N 60°12' E 027°50'  
Track history (hours):
 
Tides and Currents Weather Stations Pressure Air Temp Water Temp Dewpoint Dewpoint Depression Visibility Wind Speed Wind Dir Waves Ship Positions

Nordic Pia

Last reported at 2017-Dec-14 18:30 UTC. Time now 2017-Dec-18 05:28 UTC.
Position N 53°43' E 008°18'.

Length 183 m; draft 7.4 m.

Type: Ship. MMSI: 564517000.

Date/timePositionNaut miles runAvg speedWind from/ knotsBaromVisibWave heightAir tempDewpointWater temp
2017-Dec-14 18:30N 53°43' E 008°18'611.8
2017-Dec-14 18:00N 53°39' E 008°26'611.6
2017-Dec-14 17:30N 53°34' E 008°32'4 7.8
2017-Dec-14 17:00N 53°30' E 008°31'612.6
2017-Dec-14 16:31N 53°24' E 008°30'611.9
2017-Dec-14 16:00N 53°18' E 008°30'10 9.8
2017-Dec-14 15:00N 53°10' E 008°38'4 7.9
2017-Dec-14 14:31N 53°07' E 008°43'0 0.3
2017-Dec-14 14:00N 53°07' E 008°43'0 0.4
2017-Dec-14 13:30N 53°07' E 008°43'1 1.0
2017-Dec-14 12:59N 53°08' E 008°43'0 0.0
2017-Dec-14 12:29N 53°08' E 008°43'0 0.0
2017-Dec-14 11:59N 53°08' E 008°43'0 0.0
2017-Dec-14 11:29N 53°08' E 008°43'0 0.0
2017-Dec-14 10:59N 53°08' E 008°43'0 0.0
2017-Dec-14 10:29N 53°08' E 008°43'0 0.0
2017-Dec-14 09:59N 53°08' E 008°43'0 0.0
2017-Dec-14 09:29N 53°08' E 008°43'0 0.0
2017-Dec-14 08:59N 53°08' E 008°43'0 0.0
2017-Dec-14 08:29N 53°08' E 008°43'0 0.0
2017-Dec-14 07:59N 53°08' E 008°43'0 0.0
2017-Dec-14 07:29N 53°08' E 008°43'0 0.0
2017-Dec-14 06:59N 53°08' E 008°43'0 0.0
2017-Dec-14 06:29N 53°08' E 008°43'0 0.0
2017-Dec-14 05:59N 53°08' E 008°43'0 0.0
2017-Dec-14 05:29N 53°08' E 008°43'0 0.0
2017-Dec-14 04:59N 53°08' E 008°43'0 0.0
2017-Dec-14 04:29N 53°08' E 008°43'0 0.0
2017-Dec-14 03:59N 53°08' E 008°43'0 0.0
2017-Dec-14 03:29N 53°08' E 008°43'0 0.0
2017-Dec-14 02:59N 53°08' E 008°43'0 0.0
2017-Dec-14 02:29N 53°08' E 008°43'0 0.0
2017-Dec-14 01:59N 53°08' E 008°43'0 0.0
2017-Dec-14 01:29N 53°08' E 008°43'0 0.0
2017-Dec-14 00:59N 53°08' E 008°43'0 0.0
2017-Dec-14 00:29N 53°08' E 008°43'0 0.0
2017-Dec-13 23:59N 53°08' E 008°43'0 0.0
2017-Dec-13 23:29N 53°08' E 008°43'0 0.0
2017-Dec-13 22:59N 53°08' E 008°43'0 0.0
2017-Dec-13 22:29N 53°08' E 008°43'0 0.0
2017-Dec-13 21:59N 53°08' E 008°43'0 0.0
2017-Dec-13 21:29N 53°08' E 008°43'0 0.0
2017-Dec-13 20:59N 53°08' E 008°43'0 0.0
2017-Dec-13 20:29N 53°08' E 008°43'0 0.0
2017-Dec-13 19:59N 53°08' E 008°43'0 0.0
2017-Dec-13 19:29N 53°08' E 008°43'0 0.0
2017-Dec-13 18:59N 53°08' E 008°43'0 0.0
2017-Dec-13 18:29N 53°08' E 008°43'0 0.0
2017-Dec-13 17:59N 53°08' E 008°43'0 0.0
2017-Dec-13 17:29N 53°08' E 008°43'0 0.0
2017-Dec-13 16:59N 53°08' E 008°43'0 0.0
2017-Dec-13 16:29N 53°08' E 008°43'0 0.0
2017-Dec-13 15:59N 53°08' E 008°43'0 0.0
2017-Dec-13 15:29N 53°08' E 008°43'0 0.0
2017-Dec-13 14:59N 53°08' E 008°43'0 0.0
2017-Dec-13 14:29N 53°08' E 008°43'0 0.0
2017-Dec-13 13:59N 53°08' E 008°43'0 0.0
2017-Dec-13 13:30N 53°08' E 008°43'0 0.0
2017-Dec-13 12:59N 53°08' E 008°43'0 0.0
2017-Dec-13 12:29N 53°08' E 008°43'0 0.0
2017-Dec-13 11:59N 53°08' E 008°43'0 0.0
2017-Dec-13 11:29N 53°08' E 008°43'0 0.0
2017-Dec-13 10:59N 53°08' E 008°43'0 0.0
2017-Dec-13 10:29N 53°08' E 008°43'0 0.0
2017-Dec-13 09:59N 53°08' E 008°43'0 0.0
2017-Dec-13 09:29N 53°08' E 008°43'0 0.0
2017-Dec-13 08:59N 53°08' E 008°43'0 0.0
2017-Dec-13 08:29N 53°08' E 008°43'0 0.0
2017-Dec-13 07:59N 53°08' E 008°43'0 0.0
2017-Dec-13 07:29N 53°08' E 008°43'0 0.0
2017-Dec-13 06:59N 53°08' E 008°43'0 0.0
2017-Dec-13 06:29N 53°08' E 008°43'0 0.0
2017-Dec-13 05:59N 53°08' E 008°43'0 0.0
2017-Dec-13 05:29N 53°08' E 008°43'0 0.0
2017-Dec-13 04:59N 53°08' E 008°43'0 0.0
2017-Dec-13 04:29N 53°08' E 008°43'0 0.0
2017-Dec-13 03:59N 53°08' E 008°43'0 0.0
2017-Dec-13 03:29N 53°08' E 008°43'0 0.0
2017-Dec-13 02:59N 53°08' E 008°43'0 0.0
2017-Dec-13 02:29N 53°08' E 008°43'0 0.0
2017-Dec-13 01:59N 53°08' E 008°43'0 0.0
2017-Dec-13 01:29N 53°08' E 008°43'0 0.0
2017-Dec-13 00:59N 53°08' E 008°43'0 0.0
2017-Dec-13 00:29N 53°08' E 008°43'0 0.0
2017-Dec-12 23:59N 53°08' E 008°43'0 0.0
2017-Dec-12 23:26N 53°08' E 008°43'0 0.0
2017-Dec-12 22:59N 53°08' E 008°43'0 0.0
2017-Dec-12 22:29N 53°08' E 008°43'0 0.0
2017-Dec-12 21:59N 53°08' E 008°43'0 0.0
2017-Dec-12 21:29N 53°08' E 008°43'0 0.0
2017-Dec-12 20:59N 53°08' E 008°43'0 0.0
2017-Dec-12 20:29N 53°08' E 008°43'0 0.0
2017-Dec-12 19:59N 53°08' E 008°43'0 0.0
2017-Dec-12 19:29N 53°08' E 008°43'0 0.0
2017-Dec-12 18:59N 53°08' E 008°43'0 0.0
2017-Dec-12 18:29N 53°08' E 008°43'0 0.0
2017-Dec-12 17:59N 53°08' E 008°43'0 0.0
2017-Dec-12 17:29N 53°08' E 008°43'0 0.0
2017-Dec-12 16:59N 53°08' E 008°43'0 0.0
2017-Dec-12 16:29N 53°08' E 008°43'0 0.0
2017-Dec-12 15:59N 53°08' E 008°43'0 0.0
2017-Dec-12 15:29N 53°08' E 008°43'0 0.0
2017-Dec-12 14:59N 53°08' E 008°43'0 0.0
2017-Dec-12 14:29N 53°08' E 008°43'0 0.0
2017-Dec-12 13:59N 53°08' E 008°43'0 0.0
2017-Dec-12 13:29N 53°08' E 008°43'0 0.0
2017-Dec-12 12:59N 53°08' E 008°43'0 0.0
2017-Dec-12 12:29N 53°08' E 008°43'0 0.0
2017-Dec-12 11:59N 53°08' E 008°43'0 0.0
2017-Dec-12 11:29N 53°08' E 008°43'0 0.0
2017-Dec-12 10:59N 53°08' E 008°43'0 0.0
2017-Dec-12 10:29N 53°08' E 008°43'0 0.0
2017-Dec-12 09:59N 53°08' E 008°43'0 0.6
2017-Dec-12 09:30N 53°08' E 008°43'0 0.7
2017-Dec-12 09:00N 53°07' E 008°43'0 0.2
2017-Dec-12 08:31N 53°07' E 008°43'0 0.2
2017-Dec-12 08:00N 53°07' E 008°43'0 0.9
2017-Dec-12 07:31N 53°07' E 008°42'2 4.5
2017-Dec-12 07:00N 53°08' E 008°38'4 7.6
2017-Dec-12 06:30N 53°11' E 008°34'5 9.9
2017-Dec-12 06:00N 53°15' E 008°29'611.5
2017-Dec-12 05:31N 53°20' E 008°30'612.7
2017-Dec-12 05:00N 53°27' E 008°29'611.2
2017-Dec-12 04:30N 53°32' E 008°34'4 8.2
2017-Dec-12 04:00N 53°35' E 008°31'612.2
2017-Dec-12 03:30N 53°40' E 008°23'713.1
2017-Dec-12 03:00N 53°44' E 008°15'713.9
2017-Dec-12 02:30N 53°49' E 008°07'612.6
2017-Dec-12 02:01N 53°51' E 007°57'247 5.9
2017-Dec-10 08:03N 57°48' E 010°04'112.1
2017-Dec-10 07:59N 57°48' E 010°05'611.7
2017-Dec-10 07:30N 57°49' E 010°16'611.2
2017-Dec-10 07:00N 57°48' E 010°26'511.0
2017-Dec-10 06:30N 57°48' E 010°36'510.4
2017-Dec-10 06:00N 57°48' E 010°46'611.1
2017-Dec-10 05:30N 57°44' E 010°53'5 9.8
2017-Dec-10 05:00N 57°41' E 011°00'611.8
2017-Dec-10 04:30N 57°37' E 011°08'611.8
2017-Dec-10 04:00N 57°33' E 011°17'611.5
2017-Dec-10 03:30N 57°29' E 011°25'611.5
2017-Dec-10 03:00N 57°24' E 011°29'611.8
2017-Dec-10 02:30N 57°18' E 011°32'611.8
2017-Dec-10 02:00N 57°12' E 011°36'612.0
2017-Dec-10 01:30N 57°07' E 011°40'10810.8
2017-Dec-09 15:33N 55°21' E 011°02'110.5
2017-Dec-09 15:30N 55°21' E 011°02'510.4
2017-Dec-09 15:00N 55°16' E 011°05'5 9.5
2017-Dec-09 14:29N 55°11' E 011°04'510.7
2017-Dec-09 14:00N 55°06' E 010°59'510.9
2017-Dec-09 13:30N 55°01' E 010°59'510.5
2017-Dec-09 13:00N 54°57' E 010°54'4 8.6
2017-Dec-09 12:30N 54°53' E 010°51'4 7.9
2017-Dec-09 12:00N 54°49' E 010°50'510.6
2017-Dec-09 11:30N 54°44' E 010°47'5 9.5
2017-Dec-09 11:00N 54°40' E 010°51'510.7
2017-Dec-09 10:30N 54°37' E 010°58'510.4
2017-Dec-09 10:00N 54°36' E 011°07'510.0
2017-Dec-09 09:30N 54°34' E 011°15'510.5
2017-Dec-09 09:00N 54°32' E 011°24'510.6
2017-Dec-09 08:30N 54°30' E 011°32'510.6
2017-Dec-09 08:00N 54°28' E 011°40'810.7
2017-Dec-09 07:17N 54°27' E 011°54'310.5
2017-Dec-09 07:00N 54°27' E 011°58'69 9.5
2017-Dec-08 23:46N 55°00' E 013°43'410.4
2017-Dec-08 23:24N 55°01' E 013°50'510.3
2017-Dec-08 22:55N 55°03' E 013°57'510.3
2017-Dec-08 22:28N 55°05' E 014°05'710.3
2017-Dec-08 21:50N 55°10' E 014°12'510.7
2017-Dec-08 21:22N 55°14' E 014°18'510.8
2017-Dec-08 20:56N 55°18' E 014°23'611.1
2017-Dec-08 20:25N 55°23' E 014°29'611.0
2017-Dec-08 19:54N 55°27' E 014°35'511.1
2017-Dec-08 19:28N 55°29' E 014°43'1111.1
2017-Dec-08 18:26N 55°34' E 015°00'511.1
2017-Dec-08 17:59N 55°37' E 015°08'511.0
2017-Dec-08 17:30N 55°39' E 015°17'511.0
2017-Dec-08 17:00N 55°42' E 015°25'611.0
2017-Dec-08 16:30N 55°44' E 015°34'611.1
2017-Dec-08 16:00N 55°47' E 015°43'611.1
2017-Dec-08 15:30N 55°49' E 015°51'611.1
2017-Dec-08 15:00N 55°53' E 015°60'611.1
2017-Dec-08 14:30N 55°56' E 016°08'510.9
2017-Dec-08 14:00N 55°59' E 016°16'510.6
2017-Dec-08 13:30N 56°01' E 016°24'510.7
2017-Dec-08 13:00N 56°04' E 016°32'29510.6
2017-Dec-07 09:05N 59°36' E 022°59'112.1
2017-Dec-07 09:00N 59°36' E 023°01'612.3
2017-Dec-07 08:30N 59°38' E 023°13'612.3
2017-Dec-07 08:00N 59°39' E 023°25'612.4
2017-Dec-07 07:30N 59°41' E 023°36'612.9
2017-Dec-07 07:00N 59°43' E 023°49'713.8
2017-Dec-07 06:30N 59°44' E 024°02'812.9
2017-Dec-07 05:51N 59°47' E 024°18'412.4
2017-Dec-07 05:30N 59°48' E 024°26'612.4
2017-Dec-07 05:00N 59°49' E 024°39'612.6
2017-Dec-07 04:31N 59°50' E 024°51'612.6
2017-Dec-07 04:00N 59°52' E 025°03'612.4
2017-Dec-07 03:30N 59°53' E 025°15'2912.7
2017-Dec-07 01:11N 59°59' E 026°13'212.3
2017-Dec-07 00:59N 59°59' E 026°17'612.4
2017-Dec-07 00:31N 60°01' E 026°29'611.7
2017-Dec-07 00:01N 60°01' E 026°41'612.6
2017-Dec-06 23:30N 59°60' E 026°53'611.9
2017-Dec-06 23:00N 59°60' E 027°05'612.5
2017-Dec-06 22:30N 60°03' E 027°16'612.4
2017-Dec-06 22:00N 60°06' E 027°27'612.5
2017-Dec-06 21:30N 60°10' E 027°37'713.2
2017-Dec-06 21:01N 60°12' E 027°50'  

Dump ship's entire track history